Time;durP1;ratioP1;P1;durP2;ratioP2;P2;SDS_P1;SDS_P2;PMS_P1;PMS_P2;Temp;Humidity;BMP_temperature;BMP_pressure;BME280_temperature;BME280_humidity;BME280_pressure;Samples;Min_cycle;Max_cycle;Signal;HPM_P1;HPM_P2
2021/12/31 00:02:15;;;;;;;15.82;3.38;;;;;;;;;;5121427;27;20039;-70
2021/12/31 00:04:42;;;;;;;13.07;2.88;;;;;;;;;;5082035;27;20480;-69
2021/12/31 00:07:08;;;;;;;11.80;2.92;;;;;;;;;;5103414;28;20062;-69
2021/12/31 00:09:34;;;;;;;12.15;3.35;;;;;;;;;;5103173;27;20054;-70
2021/12/31 00:12:00;;;;;;;13.68;3.30;;;;;;;;;;5102564;27;20082;-70
2021/12/31 00:14:26;;;;;;;8.82;3.05;;;;;;;;;;5104126;27;20047;-70
2021/12/31 00:16:52;;;;;;;10.13;2.40;;;;;;;;;;5104275;27;20043;-70
2021/12/31 00:19:18;;;;;;;11.18;3.60;;;;;;;;;;5103920;28;20039;-69
2021/12/31 00:21:47;;;;;;;7.88;2.75;;;;;;;;;;5094459;28;20146;-69
2021/12/31 00:24:13;;;;;;;10.23;2.78;;;;;;;;;;5097652;28;20366;-70
2021/12/31 00:26:39;;;;;;;9.82;2.60;;;;;;;;;;5124925;27;20071;-70
2021/12/31 00:29:05;;;;;;;11.45;2.83;;;;;;;;;;5120741;28;20096;-70
2021/12/31 00:31:31;;;;;;;11.23;2.90;;;;;;;;;;5122295;28;20037;-70
2021/12/31 00:33:57;;;;;;;12.90;2.92;;;;;;;;;;5109608;27;20076;-69
2021/12/31 00:36:37;;;;;;;10.52;2.88;;;;;;;;;;5113187;27;20065;-69
2021/12/31 00:39:03;;;;;;;15.00;3.28;;;;;;;;;;5110530;27;20178;-69
2021/12/31 00:41:29;;;;;;;9.95;2.97;;;;;;;;;;5108571;27;20067;-69
2021/12/31 00:43:55;;;;;;;10.45;2.90;;;;;;;;;;5112800;27;20062;-69
2021/12/31 00:46:21;;;;;;;12.18;3.10;;;;;;;;;;5131792;27;20069;-70
2021/12/31 00:48:47;;;;;;;13.45;3.08;;;;;;;;;;5112375;27;20039;-69
2021/12/31 00:51:13;;;;;;;10.52;3.47;;;;;;;;;;5114435;27;20447;-69
2021/12/31 00:53:39;;;;;;;10.93;3.53;;;;;;;;;;5115976;27;20547;-69
2021/12/31 00:56:05;;;;;;;8.70;3.90;;;;;;;;;;5111094;27;20071;-69
2021/12/31 00:58:31;;;;;;;15.93;4.57;;;;;;;;;;5113704;27;20463;-70
2021/12/31 01:00:57;;;;;;;16.42;6.43;;;;;;;;;;5114095;27;20388;-69
2021/12/31 01:03:23;;;;;;;20.05;8.80;;;;;;;;;;5113481;27;20088;-69
2021/12/31 01:05:50;;;;;;;21.73;7.90;;;;;;;;;;5111750;27;20046;-69
2021/12/31 01:08:16;;;;;;;16.92;7.07;;;;;;;;;;5115051;27;20055;-69
2021/12/31 01:10:42;;;;;;;15.18;5.18;;;;;;;;;;5113545;27;20031;-69
2021/12/31 01:13:13;;;;;;;15.70;3.80;;;;;;;;;;5132831;27;20035;-69
2021/12/31 01:15:43;;;;;;;15.02;3.80;;;;;;;;;;5107295;27;20124;-69
2021/12/31 01:20:35;;;;;;;12.68;3.42;;;;;;;;;;5106212;27;20043;-70
2021/12/31 01:23:02;;;;;;;13.43;2.88;;;;;;;;;;5133292;27;20106;-70
2021/12/31 01:25:28;;;;;;;12.63;2.63;;;;;;;;;;5114420;27;20043;-69
2021/12/31 01:27:54;;;;;;;10.07;2.40;;;;;;;;;;5108673;27;20478;-70
2021/12/31 01:30:20;;;;;;;8.07;2.78;;;;;;;;;;5110785;27;20146;-69
2021/12/31 01:32:46;;;;;;;7.45;2.67;;;;;;;;;;5130070;27;20037;-69
2021/12/31 01:35:13;;;;;;;9.32;2.90;;;;;;;;;;5107668;27;20486;-69
2021/12/31 01:37:39;;;;;;;8.73;2.47;;;;;;;;;;5110898;27;20071;-69
2021/12/31 01:40:06;;;;;;;13.52;2.75;;;;;;;;;;5111280;27;20126;-70
2021/12/31 01:42:33;;;;;;;9.85;3.30;;;;;;;;;;5126807;27;20035;-70
2021/12/31 01:45:08;;;;;;;10.52;2.80;;;;;;;;;;5090477;27;20769;-69
2021/12/31 01:47:46;;;;;;;9.20;2.78;;;;;;;;;;5103921;27;20040;-69
2021/12/31 01:50:12;;;;;;;12.00;2.88;;;;;;;;;;5126430;27;20046;-69
2021/12/31 01:52:41;;;;;;;7.20;2.85;;;;;;;;;;5129363;27;20043;-69
2021/12/31 01:55:12;;;;;;;8.85;2.70;;;;;;;;;;5105125;27;20104;-70
2021/12/31 01:57:39;;;;;;;8.73;2.55;;;;;;;;;;5105245;27;20039;-70
2021/12/31 02:00:06;;;;;;;9.00;2.80;;;;;;;;;;5109833;27;20043;-70
2021/12/31 02:02:32;;;;;;;10.48;3.75;;;;;;;;;;5109437;27;20528;-70
2021/12/31 02:04:58;;;;;;;10.15;3.03;;;;;;;;;;5128571;27;20092;-70
2021/12/31 02:07:24;;;;;;;11.15;3.40;;;;;;;;;;5092974;27;20047;-69
2021/12/31 02:09:54;;;;;;;7.97;3.33;;;;;;;;;;5125931;27;20031;-69
2021/12/31 02:12:20;;;;;;;11.40;3.42;;;;;;;;;;5106584;27;20095;-70
2021/12/31 02:14:47;;;;;;;9.38;3.58;;;;;;;;;;5125604;27;20083;-69
2021/12/31 02:17:13;;;;;;;12.02;4.10;;;;;;;;;;5108364;27;20100;-69
2021/12/31 02:19:39;;;;;;;10.13;3.75;;;;;;;;;;5110732;27;20039;-70
2021/12/31 02:22:05;;;;;;;8.98;3.88;;;;;;;;;;5094123;27;20058;-70
2021/12/31 02:24:32;;;;;;;6.38;3.50;;;;;;;;;;5110445;27;20129;-69
2021/12/31 02:26:58;;;;;;;10.23;3.90;;;;;;;;;;5103036;27;20043;-69
2021/12/31 02:29:25;;;;;;;7.47;3.80;;;;;;;;;;5107498;27;20051;-69
2021/12/31 02:31:52;;;;;;;8.90;4.07;;;;;;;;;;5106947;27;20074;-69
2021/12/31 02:34:19;;;;;;;9.27;3.88;;;;;;;;;;5105749;27;20076;-69
2021/12/31 02:36:45;;;;;;;8.95;4.78;;;;;;;;;;5108679;27;20050;-70
2021/12/31 02:39:11;;;;;;;12.57;4.85;;;;;;;;;;5107146;27;20035;-69
2021/12/31 02:41:37;;;;;;;11.15;4.55;;;;;;;;;;5128236;27;20050;-69
2021/12/31 02:44:04;;;;;;;9.32;4.63;;;;;;;;;;5092499;27;20071;-69
2021/12/31 02:46:30;;;;;;;9.40;4.60;;;;;;;;;;5107416;27;20395;-69
2021/12/31 02:48:57;;;;;;;8.95;4.20;;;;;;;;;;5086299;27;20031;-69
2021/12/31 02:51:27;;;;;;;11.60;5.05;;;;;;;;;;5102886;28;20039;-69
2021/12/31 02:53:54;;;;;;;9.60;4.55;;;;;;;;;;5126240;27;20032;-69
2021/12/31 02:56:21;;;;;;;11.98;5.28;;;;;;;;;;5125802;27;20044;-70
2021/12/31 02:58:47;;;;;;;8.77;4.88;;;;;;;;;;5126244;27;20049;-69
2021/12/31 03:01:13;;;;;;;8.57;5.03;;;;;;;;;;5105396;27;20046;-70
2021/12/31 03:03:40;;;;;;;8.32;4.80;;;;;;;;;;5105304;27;20047;-69
2021/12/31 03:06:07;;;;;;;10.07;5.03;;;;;;;;;;5105067;27;20043;-70
2021/12/31 03:08:39;;;;;;;10.15;4.82;;;;;;;;;;5108610;27;20047;-69
2021/12/31 03:11:06;;;;;;;8.18;4.60;;;;;;;;;;5106644;27;20382;-69
2021/12/31 03:13:34;;;;;;;10.35;5.00;;;;;;;;;;5105529;27;20051;-69
2021/12/31 03:16:00;;;;;;;7.53;4.55;;;;;;;;;;5104338;27;20031;-70
2021/12/31 03:18:27;;;;;;;11.90;5.22;;;;;;;;;;5107608;27;20050;-69
2021/12/31 03:21:08;;;;;;;10.27;5.00;;;;;;;;;;5124406;27;20360;-69
2021/12/31 03:23:35;;;;;;;7.40;4.63;;;;;;;;;;5103270;27;20107;-69
2021/12/31 03:26:01;;;;;;;8.02;4.85;;;;;;;;;;5106881;27;20041;-69
2021/12/31 03:28:27;;;;;;;11.80;5.30;;;;;;;;;;5107139;27;20047;-70
2021/12/31 03:30:53;;;;;;;7.10;4.63;;;;;;;;;;5104277;27;20033;-69
2021/12/31 03:33:20;;;;;;;10.38;5.07;;;;;;;;;;5120123;27;20062;-69
2021/12/31 03:35:46;;;;;;;12.48;5.25;;;;;;;;;;5103803;27;20051;-69
2021/12/31 03:38:12;;;;;;;10.35;5.10;;;;;;;;;;5106829;27;20111;-69
2021/12/31 03:40:39;;;;;;;7.68;5.13;;;;;;;;;;5106920;27;20031;-69
2021/12/31 03:43:05;;;;;;;10.30;4.65;;;;;;;;;;5105732;27;20114;-69
2021/12/31 03:45:31;;;;;;;10.25;5.03;;;;;;;;;;5120368;27;21255;-69
2021/12/31 03:47:57;;;;;;;7.05;4.75;;;;;;;;;;5104965;27;20375;-70
2021/12/31 03:50:23;;;;;;;10.60;5.00;;;;;;;;;;5124667;27;20035;-69
2021/12/31 03:52:49;;;;;;;10.95;5.65;;;;;;;;;;5127740;27;20077;-69
2021/12/31 03:55:15;;;;;;;10.18;5.03;;;;;;;;;;5106084;27;20061;-70
2021/12/31 03:57:41;;;;;;;8.25;5.55;;;;;;;;;;5121795;27;20507;-70
2021/12/31 04:00:09;;;;;;;10.25;5.30;;;;;;;;;;5119589;27;20045;-69
2021/12/31 04:02:35;;;;;;;10.35;4.75;;;;;;;;;;5101679;27;20043;-70
2021/12/31 04:05:02;;;;;;;11.18;5.28;;;;;;;;;;5124043;27;20051;-70
2021/12/31 04:07:28;;;;;;;10.77;4.90;;;;;;;;;;5095116;28;20121;-69
2021/12/31 04:09:54;;;;;;;9.10;4.78;;;;;;;;;;5107266;27;20074;-69
2021/12/31 04:12:20;;;;;;;8.38;4.55;;;;;;;;;;5121993;27;20043;-69
2021/12/31 04:14:46;;;;;;;11.38;4.75;;;;;;;;;;5104446;27;20132;-69
2021/12/31 04:17:12;;;;;;;9.27;4.70;;;;;;;;;;5082550;28;20039;-69
2021/12/31 04:19:41;;;;;;;6.55;4.18;;;;;;;;;;5102565;27;20039;-70
2021/12/31 04:22:08;;;;;;;8.00;4.50;;;;;;;;;;5106533;27;20097;-69
2021/12/31 04:25:07;;;;;;;7.95;4.05;;;;;;;;;;5107226;27;20035;-70
2021/12/31 04:27:26;;;;;;;10.13;4.80;;;;;;;;;;5102810;27;20506;-70
2021/12/31 04:29:53;;;;;;;7.35;3.50;;;;;;;;;;5103343;28;20546;-70
2021/12/31 04:32:20;;;;;;;8.27;3.78;;;;;;;;;;5105116;28;20078;-69
2021/12/31 04:34:47;;;;;;;9.68;3.67;;;;;;;;;;5105654;28;20047;-69
2021/12/31 04:37:13;;;;;;;6.43;3.45;;;;;;;;;;5088640;28;20077;-69
2021/12/31 04:39:39;;;;;;;10.95;3.65;;;;;;;;;;5105666;28;20089;-70
2021/12/31 04:42:05;;;;;;;6.60;3.13;;;;;;;;;;5106045;28;20084;-69
2021/12/31 04:44:31;;;;;;;6.28;3.10;;;;;;;;;;5106477;28;20151;-70
2021/12/31 04:46:57;;;;;;;11.43;3.40;;;;;;;;;;5107023;28;20360;-70
2021/12/31 04:49:23;;;;;;;7.57;3.15;;;;;;;;;;5123741;28;20035;-70
2021/12/31 04:51:49;;;;;;;5.93;2.75;;;;;;;;;;5121161;28;20035;-69
2021/12/31 04:54:16;;;;;;;7.35;2.60;;;;;;;;;;5122436;28;20145;-69
2021/12/31 04:56:46;;;;;;;6.40;2.65;;;;;;;;;;5105730;28;20039;-70
2021/12/31 04:59:12;;;;;;;6.32;2.80;;;;;;;;;;5105148;28;20039;-70
2021/12/31 05:01:38;;;;;;;6.45;2.58;;;;;;;;;;5107061;28;20483;-69
2021/12/31 05:04:05;;;;;;;4.32;2.55;;;;;;;;;;5104330;28;20384;-69
2021/12/31 05:06:31;;;;;;;6.57;2.78;;;;;;;;;;5099080;28;20051;-69
2021/12/31 05:08:57;;;;;;;4.30;2.33;;;;;;;;;;5119768;28;20395;-69
2021/12/31 05:11:23;;;;;;;9.82;2.70;;;;;;;;;;5103539;28;20054;-69
2021/12/31 05:13:49;;;;;;;5.45;2.45;;;;;;;;;;5105776;28;20040;-69
2021/12/31 05:16:15;;;;;;;6.88;2.67;;;;;;;;;;5122819;28;20031;-70
2021/12/31 05:18:41;;;;;;;6.15;2.10;;;;;;;;;;5124486;27;20096;-69
2021/12/31 05:21:07;;;;;;;6.30;2.20;;;;;;;;;;5106076;27;20135;-70
2021/12/31 05:23:33;;;;;;;6.03;2.40;;;;;;;;;;5119103;27;20119;-69
2021/12/31 05:25:59;;;;;;;5.25;2.25;;;;;;;;;;5104883;27;20050;-69
2021/12/31 05:28:25;;;;;;;5.82;2.20;;;;;;;;;;5106219;27;20047;-69
2021/12/31 05:30:52;;;;;;;3.67;1.88;;;;;;;;;;5107741;27;20050;-69
2021/12/31 05:33:18;;;;;;;6.60;2.00;;;;;;;;;;5108422;27;20042;-69
2021/12/31 05:35:44;;;;;;;9.93;2.13;;;;;;;;;;5108037;27;20057;-69
2021/12/31 05:38:10;;;;;;;5.30;1.98;;;;;;;;;;5106839;27;20039;-70
2021/12/31 05:40:36;;;;;;;4.10;2.00;;;;;;;;;;5105101;27;20047;-69
2021/12/31 05:43:02;;;;;;;6.55;2.28;;;;;;;;;;5104917;27;20061;-69
2021/12/31 05:45:28;;;;;;;4.40;2.10;;;;;;;;;;5106252;27;20039;-69
2021/12/31 05:47:54;;;;;;;4.80;1.85;;;;;;;;;;5104458;27;20044;-70
2021/12/31 05:50:29;;;;;;;5.25;2.05;;;;;;;;;;5105967;27;20382;-69
2021/12/31 05:52:59;;;;;;;4.77;1.80;;;;;;;;;;5083422;27;20693;-70
2021/12/31 05:55:26;;;;;;;4.50;2.08;;;;;;;;;;5104830;27;20040;-70
2021/12/31 05:57:52;;;;;;;4.50;2.05;;;;;;;;;;5106098;27;20062;-69
2021/12/31 06:00:19;;;;;;;8.05;2.08;;;;;;;;;;5107777;27;20582;-70
2021/12/31 06:02:45;;;;;;;3.88;2.00;;;;;;;;;;5090604;27;20386;-69
2021/12/31 06:05:11;;;;;;;4.72;1.77;;;;;;;;;;5105254;27;20375;-70
2021/12/31 06:07:37;;;;;;;9.77;2.38;;;;;;;;;;5103175;27;20046;-69
2021/12/31 06:10:03;;;;;;;4.13;2.00;;;;;;;;;;5127591;27;20579;-70
2021/12/31 06:12:30;;;;;;;3.85;1.95;;;;;;;;;;5124257;27;20066;-70
2021/12/31 06:15:02;;;;;;;5.72;2.20;;;;;;;;;;5105543;27;20467;-69
2021/12/31 06:17:28;;;;;;;5.68;1.90;;;;;;;;;;5107487;27;20066;-70
2021/12/31 06:19:54;;;;;;;5.70;2.20;;;;;;;;;;5107233;27;20078;-69
2021/12/31 06:22:21;;;;;;;3.72;1.98;;;;;;;;;;5109373;27;20042;-69
2021/12/31 06:24:47;;;;;;;7.10;2.20;;;;;;;;;;5103989;27;20126;-69
2021/12/31 06:27:13;;;;;;;4.30;2.15;;;;;;;;;;5106183;27;20387;-69
2021/12/31 06:29:39;;;;;;;5.93;1.95;;;;;;;;;;5106879;27;20050;-69
2021/12/31 06:32:05;;;;;;;6.05;2.30;;;;;;;;;;5106844;27;20035;-69
2021/12/31 06:34:31;;;;;;;5.13;2.10;;;;;;;;;;5106950;27;20063;-70
2021/12/31 06:36:58;;;;;;;5.78;2.50;;;;;;;;;;5107636;27;20058;-69
2021/12/31 06:39:26;;;;;;;6.13;1.75;;;;;;;;;;5107116;27;20074;-70
2021/12/31 06:41:52;;;;;;;4.05;1.88;;;;;;;;;;5126575;27;20130;-69
2021/12/31 06:44:18;;;;;;;7.85;2.22;;;;;;;;;;5103489;27;20492;-70
2021/12/31 06:46:44;;;;;;;6.68;2.15;;;;;;;;;;5103589;27;20443;-69
2021/12/31 06:49:11;;;;;;;7.10;2.38;;;;;;;;;;5121261;27;20038;-69
2021/12/31 06:51:37;;;;;;;4.90;1.92;;;;;;;;;;5124565;27;20086;-70
2021/12/31 06:54:03;;;;;;;3.63;1.90;;;;;;;;;;5099673;27;20058;-69
2021/12/31 06:56:29;;;;;;;4.22;1.90;;;;;;;;;;5104596;27;20031;-69
2021/12/31 06:58:55;;;;;;;3.60;1.90;;;;;;;;;;5125009;27;20110;-70
2021/12/31 07:01:21;;;;;;;4.72;2.17;;;;;;;;;;5100258;27;20092;-70
2021/12/31 07:03:47;;;;;;;5.07;2.10;;;;;;;;;;5104233;27;20042;-70
2021/12/31 07:06:13;;;;;;;5.10;2.38;;;;;;;;;;5107019;27;20049;-69
2021/12/31 07:08:40;;;;;;;3.42;1.98;;;;;;;;;;5105156;27;20090;-70
2021/12/31 07:11:06;;;;;;;5.25;2.03;;;;;;;;;;5099803;27;20051;-69
2021/12/31 07:13:32;;;;;;;3.05;2.00;;;;;;;;;;5099952;27;20445;-70
2021/12/31 07:15:58;;;;;;;4.78;2.10;;;;;;;;;;5105649;27;20544;-69
2021/12/31 07:18:25;;;;;;;7.28;2.00;;;;;;;;;;5101748;27;20479;-69
2021/12/31 07:20:51;;;;;;;6.30;2.10;;;;;;;;;;5100876;27;20035;-69
2021/12/31 07:23:18;;;;;;;7.18;2.30;;;;;;;;;;5105758;27;20388;-69
2021/12/31 07:25:44;;;;;;;4.97;2.00;;;;;;;;;;5124383;27;20036;-69
2021/12/31 07:28:12;;;;;;;4.35;1.90;;;;;;;;;;5108423;27;20115;-69
2021/12/31 07:30:38;;;;;;;4.18;2.10;;;;;;;;;;5125456;27;20062;-69
2021/12/31 07:33:04;;;;;;;3.03;1.90;;;;;;;;;;5105723;27;20039;-69
2021/12/31 07:35:31;;;;;;;4.28;2.10;;;;;;;;;;5106696;27;20103;-69
2021/12/31 07:37:58;;;;;;;6.47;2.10;;;;;;;;;;5104230;27;20057;-69
2021/12/31 07:40:38;;;;;;;6.07;2.42;;;;;;;;;;5120489;27;20054;-69
2021/12/31 07:43:05;;;;;;;4.63;2.38;;;;;;;;;;5098144;28;20055;-69
2021/12/31 07:45:31;;;;;;;6.40;2.20;;;;;;;;;;5104539;27;20114;-69
2021/12/31 07:47:57;;;;;;;6.78;2.03;;;;;;;;;;5101770;27;20042;-69
2021/12/31 07:50:23;;;;;;;4.05;2.10;;;;;;;;;;5087498;27;20067;-69
2021/12/31 07:52:49;;;;;;;4.45;2.00;;;;;;;;;;5104965;27;20095;-69
2021/12/31 07:55:15;;;;;;;4.82;2.63;;;;;;;;;;5099257;27;20043;-69
2021/12/31 07:57:41;;;;;;;4.25;2.20;;;;;;;;;;5120044;27;20038;-69
2021/12/31 08:00:07;;;;;;;6.80;2.10;;;;;;;;;;5117941;27;20075;-69
2021/12/31 08:02:33;;;;;;;6.80;2.30;;;;;;;;;;5104707;27;20043;-68
2021/12/31 08:04:59;;;;;;;5.82;2.10;;;;;;;;;;5123587;27;20099;-68
2021/12/31 08:07:25;;;;;;;4.90;2.25;;;;;;;;;;5086298;27;20106;-69
2021/12/31 08:09:51;;;;;;;5.72;2.20;;;;;;;;;;5095918;27;20059;-69
2021/12/31 08:12:17;;;;;;;3.97;2.03;;;;;;;;;;5099694;27;20039;-69
2021/12/31 08:14:43;;;;;;;3.13;1.90;;;;;;;;;;5103960;27;20114;-68
2021/12/31 08:17:10;;;;;;;4.60;2.00;;;;;;;;;;5102495;27;20050;-69
2021/12/31 08:19:36;;;;;;;3.22;1.77;;;;;;;;;;5102777;27;20494;-69
2021/12/31 08:22:02;;;;;;;6.60;2.10;;;;;;;;;;5105665;28;20039;-69
2021/12/31 08:24:28;;;;;;;4.30;2.17;;;;;;;;;;5121223;27;20046;-69
2021/12/31 08:26:54;;;;;;;4.68;2.17;;;;;;;;;;5119291;27;20047;-69
2021/12/31 08:29:20;;;;;;;6.43;2.38;;;;;;;;;;5103134;27;20061;-69
2021/12/31 08:31:47;;;;;;;3.50;1.88;;;;;;;;;;5104937;28;20745;-69
2021/12/31 08:34:13;;;;;;;4.65;2.20;;;;;;;;;;5087639;28;20479;-69
2021/12/31 08:36:39;;;;;;;4.22;2.00;;;;;;;;;;5101178;28;20469;-69
2021/12/31 08:39:10;;;;;;;6.07;2.58;;;;;;;;;;5098069;28;20051;-68
2021/12/31 08:41:36;;;;;;;3.13;1.90;;;;;;;;;;5103256;28;20064;-68
2021/12/31 08:44:03;;;;;;;6.05;2.17;;;;;;;;;;5106559;28;20042;-69
2021/12/31 08:46:29;;;;;;;5.25;2.00;;;;;;;;;;5103481;28;20471;-69
2021/12/31 08:48:55;;;;;;;5.93;2.30;;;;;;;;;;5082791;28;20145;-68
2021/12/31 08:51:21;;;;;;;4.13;2.15;;;;;;;;;;5120271;28;20733;-69
2021/12/31 08:53:47;;;;;;;5.68;2.25;;;;;;;;;;5125203;27;20118;-69
2021/12/31 08:56:13;;;;;;;6.93;2.40;;;;;;;;;;5106440;27;20118;-69
2021/12/31 08:58:39;;;;;;;4.38;2.03;;;;;;;;;;5089396;27;20039;-68
2021/12/31 09:01:05;;;;;;;5.63;2.25;;;;;;;;;;5127254;27;20618;-69
2021/12/31 09:03:31;;;;;;;4.97;2.45;;;;;;;;;;5105178;27;20130;-69
2021/12/31 09:05:57;;;;;;;3.67;1.90;;;;;;;;;;5109139;28;20500;-69
2021/12/31 09:08:23;;;;;;;3.95;1.95;;;;;;;;;;5119195;27;20032;-68
2021/12/31 09:10:50;;;;;;;3.45;2.10;;;;;;;;;;5125114;27;20074;-71
2021/12/31 09:13:16;;;;;;;9.60;2.72;;;;;;;;;;5106456;27;20147;-69
2021/12/31 09:15:42;;;;;;;5.57;2.42;;;;;;;;;;5104095;27;20486;-68
2021/12/31 09:18:08;;;;;;;4.60;2.50;;;;;;;;;;5105640;27;20088;-68
2021/12/31 09:20:34;;;;;;;6.97;2.50;;;;;;;;;;5102815;27;20039;-68
2021/12/31 09:23:02;;;;;;;3.92;2.15;;;;;;;;;;5123123;27;20548;-68
2021/12/31 09:25:28;;;;;;;4.55;2.22;;;;;;;;;;5104085;27;20042;-68
2021/12/31 09:27:54;;;;;;;4.88;2.05;;;;;;;;;;5106940;27;20126;-68
2021/12/31 09:30:20;;;;;;;4.88;2.55;;;;;;;;;;5108035;27;20124;-68
2021/12/31 09:32:46;;;;;;;5.38;2.35;;;;;;;;;;5106838;27;20066;-68
2021/12/31 09:35:12;;;;;;;5.72;2.45;;;;;;;;;;5126934;27;20039;-68
2021/12/31 09:37:39;;;;;;;5.13;2.70;;;;;;;;;;5096378;28;20047;-67
2021/12/31 09:40:05;;;;;;;5.28;2.47;;;;;;;;;;5106991;28;20052;-68
2021/12/31 09:42:31;;;;;;;3.88;2.10;;;;;;;;;;5103174;28;20040;-68
2021/12/31 09:44:57;;;;;;;6.22;2.80;;;;;;;;;;5100110;28;20506;-69
2021/12/31 09:47:23;;;;;;;5.10;2.50;;;;;;;;;;5108167;28;20475;-68
2021/12/31 09:49:50;;;;;;;6.72;2.42;;;;;;;;;;5106561;28;20054;-68
2021/12/31 09:52:17;;;;;;;5.07;2.58;;;;;;;;;;5103914;28;20101;-68
2021/12/31 09:54:44;;;;;;;5.65;2.20;;;;;;;;;;5101335;28;20514;-69
2021/12/31 09:57:14;;;;;;;6.65;2.17;;;;;;;;;;5103550;28;20040;-70
2021/12/31 09:59:41;;;;;;;3.83;2.25;;;;;;;;;;5104724;28;20649;-68
2021/12/31 10:02:08;;;;;;;5.72;2.70;;;;;;;;;;5105185;28;20054;-68
2021/12/31 10:04:51;;;;;;;7.38;2.60;;;;;;;;;;5103034;28;20096;-66
2021/12/31 10:07:20;;;;;;;4.55;2.63;;;;;;;;;;5099694;28;20044;-67
2021/12/31 10:10:07;;;;;;;4.63;2.47;;;;;;;;;;5105544;28;20127;-67
2021/12/31 10:12:45;;;;;;;9.15;2.70;;;;;;;;;;5106494;28;20147;-69
2021/12/31 10:15:11;;;;;;;6.22;2.75;;;;;;;;;;5101214;28;20039;-70
2021/12/31 10:17:37;;;;;;;7.07;2.65;;;;;;;;;;5106129;28;20127;-70
2021/12/31 10:20:04;;;;;;;5.13;3.00;;;;;;;;;;5108119;28;20061;-70
2021/12/31 10:22:30;;;;;;;5.18;2.33;;;;;;;;;;5105241;28;21301;-70
2021/12/31 10:24:56;;;;;;;8.38;2.83;;;;;;;;;;5105146;28;20049;-70
2021/12/31 10:27:23;;;;;;;5.32;2.60;;;;;;;;;;5102817;28;20043;-70
2021/12/31 10:30:00;;;;;;;4.25;2.55;;;;;;;;;;5103930;28;20062;-71
2021/12/31 10:32:27;;;;;;;5.25;2.65;;;;;;;;;;5102646;28;20047;-70
2021/12/31 10:34:53;;;;;;;5.60;2.90;;;;;;;;;;5100627;28;20063;-71
2021/12/31 10:37:22;;;;;;;4.55;2.53;;;;;;;;;;5106940;28;20515;-71
2021/12/31 10:39:58;;;;;;;5.93;3.05;;;;;;;;;;5106702;28;20047;-71
2021/12/31 10:42:33;;;;;;;4.68;2.75;;;;;;;;;;5105276;28;20039;-71
2021/12/31 10:45:00;;;;;;;6.15;3.10;;;;;;;;;;5100467;28;20032;-71
2021/12/31 10:47:31;;;;;;;5.80;3.75;;;;;;;;;;5097017;28;20101;-71
2021/12/31 10:50:03;;;;;;;7.07;3.35;;;;;;;;;;5104282;28;20036;-69
2021/12/31 10:52:35;;;;;;;8.95;3.30;;;;;;;;;;5099110;28;20035;-70
2021/12/31 10:55:24;;;;;;;6.30;3.70;;;;;;;;;;5086102;28;20120;-71
2021/12/31 10:57:51;;;;;;;7.40;3.40;;;;;;;;;;5105143;28;20047;-72
2021/12/31 11:00:18;;;;;;;6.95;3.00;;;;;;;;;;5079052;28;20058;-72
2021/12/31 11:02:44;;;;;;;7.07;3.78;;;;;;;;;;5104090;28;20074;-71
2021/12/31 11:05:11;;;;;;;7.03;3.17;;;;;;;;;;5069934;28;20067;-71
2021/12/31 11:07:38;;;;;;;6.43;3.67;;;;;;;;;;5103076;28;20480;-70
2021/12/31 11:10:04;;;;;;;6.07;3.28;;;;;;;;;;5102438;28;20564;-71
2021/12/31 11:12:31;;;;;;;6.28;3.40;;;;;;;;;;5107312;28;20180;-72
2021/12/31 11:14:57;;;;;;;5.57;3.30;;;;;;;;;;5101618;28;20556;-72
2021/12/31 11:17:24;;;;;;;5.10;3.03;;;;;;;;;;5099980;28;20038;-72
2021/12/31 11:19:50;;;;;;;6.35;3.60;;;;;;;;;;5103652;28;20075;-72
2021/12/31 11:22:18;;;;;;;7.55;3.58;;;;;;;;;;5101570;28;20075;-72
2021/12/31 11:24:44;;;;;;;9.55;4.13;;;;;;;;;;5099580;28;20513;-72
2021/12/31 11:27:29;;;;;;;6.75;3.78;;;;;;;;;;5100516;28;20433;-72
2021/12/31 11:29:56;;;;;;;10.07;4.20;;;;;;;;;;5122887;27;20135;-71
2021/12/31 11:32:41;;;;;;;9.32;4.07;;;;;;;;;;5097192;28;20111;-71
2021/12/31 11:35:26;;;;;;;7.85;4.10;;;;;;;;;;5103278;28;20139;-69
2021/12/31 11:37:52;;;;;;;11.77;5.15;;;;;;;;;;5101265;28;20036;-72
2021/12/31 11:40:31;;;;;;;11.05;5.13;;;;;;;;;;5101471;28;20114;-72
2021/12/31 11:43:14;;;;;;;8.55;4.75;;;;;;;;;;5099109;28;20043;-72
2021/12/31 11:45:40;;;;;;;9.00;4.80;;;;;;;;;;5100620;28;20031;-72
2021/12/31 11:48:25;;;;;;;8.25;4.55;;;;;;;;;;5103999;28;20443;-72
2021/12/31 11:51:04;;;;;;;8.13;4.53;;;;;;;;;;5101802;28;20044;-72
2021/12/31 11:53:30;;;;;;;9.73;4.78;;;;;;;;;;5105895;28;20101;-72
2021/12/31 11:55:56;;;;;;;8.52;4.43;;;;;;;;;;5108057;28;20460;-72
2021/12/31 11:58:51;;;;;;;10.15;7.05;;;;;;;;;;5103256;28;20371;-72
2021/12/31 12:01:36;;;;;;;7.13;4.35;;;;;;;;;;5082227;28;20046;-72
2021/12/31 12:04:21;;;;;;;8.80;4.45;;;;;;;;;;5102738;28;20040;-72
2021/12/31 12:07:00;;;;;;;6.95;4.43;;;;;;;;;;5102789;28;20073;-72
2021/12/31 12:09:35;;;;;;;11.60;4.25;;;;;;;;;;5099228;28;20040;-72
2021/12/31 12:12:04;;;;;;;7.47;4.28;;;;;;;;;;5097719;28;20037;-72
2021/12/31 12:14:32;;;;;;;12.90;4.50;;;;;;;;;;5106153;28;20434;-72
2021/12/31 12:16:58;;;;;;;12.60;4.50;;;;;;;;;;5119129;27;20115;-72
2021/12/31 12:19:43;;;;;;;8.73;4.35;;;;;;;;;;5099909;28;20055;-72
2021/12/31 12:22:09;;;;;;;6.70;4.30;;;;;;;;;;5098276;28;20044;-72
2021/12/31 12:24:36;;;;;;;9.43;4.88;;;;;;;;;;5097807;28;20032;-72
2021/12/31 12:27:04;;;;;;;7.50;4.28;;;;;;;;;;5098208;28;20032;-72
2021/12/31 12:29:30;;;;;;;9.77;4.95;;;;;;;;;;5105571;28;20476;-72
2021/12/31 12:32:10;;;;;;;11.60;5.43;;;;;;;;;;5100634;28;20495;-72
2021/12/31 12:34:36;;;;;;;9.32;4.90;;;;;;;;;;5099576;28;20050;-73
2021/12/31 12:37:03;;;;;;;14.70;5.45;;;;;;;;;;5103757;28;20074;-75
2021/12/31 12:39:30;;;;;;;9.95;5.15;;;;;;;;;;5078742;28;20044;-75
2021/12/31 12:41:56;;;;;;;14.50;5.47;;;;;;;;;;5085892;28;20500;-71
2021/12/31 12:44:22;;;;;;;8.60;5.22;;;;;;;;;;5103004;28;20391;-73
2021/12/31 12:46:53;;;;;;;13.20;5.38;;;;;;;;;;5094113;28;20092;-71
2021/12/31 12:49:19;;;;;;;9.20;5.43;;;;;;;;;;5097039;28;20142;-68
2021/12/31 12:51:46;;;;;;;10.70;5.38;;;;;;;;;;5103896;28;20036;-68
2021/12/31 12:54:18;;;;;;;8.93;4.63;;;;;;;;;;5098147;28;20044;-71
2021/12/31 12:56:44;;;;;;;10.00;4.85;;;;;;;;;;5081715;28;20437;-69
2021/12/31 12:59:17;;;;;;;12.68;7.35;;;;;;;;;;5100718;28;20092;-71
2021/12/31 13:01:47;;;;;;;9.45;5.00;;;;;;;;;;5097806;28;20499;-69
2021/12/31 13:04:14;;;;;;;10.80;4.78;;;;;;;;;;5120700;28;20040;-69
2021/12/31 13:06:44;;;;;;;14.40;5.50;;;;;;;;;;5095441;28;20496;-69
2021/12/31 13:09:13;;;;;;;10.88;5.55;;;;;;;;;;5103466;28;20039;-69
2021/12/31 13:11:40;;;;;;;10.70;5.18;;;;;;;;;;5104411;28;20047;-69
2021/12/31 13:14:13;;;;;;;12.95;6.10;;;;;;;;;;5102286;28;20044;-67
2021/12/31 13:16:40;;;;;;;14.05;6.00;;;;;;;;;;5100894;28;21068;-67
2021/12/31 13:19:09;;;;;;;10.40;5.32;;;;;;;;;;5097621;28;20051;-68
2021/12/31 13:21:35;;;;;;;16.13;6.03;;;;;;;;;;5103098;28;20177;-68
2021/12/31 13:24:02;;;;;;;11.65;5.03;;;;;;;;;;5103946;28;20036;-67
2021/12/31 13:26:29;;;;;;;10.98;5.35;;;;;;;;;;5102302;28;20035;-67
2021/12/31 13:28:59;;;;;;;10.15;4.47;;;;;;;;;;5099285;28;20046;-68
2021/12/31 13:31:38;;;;;;;10.95;4.88;;;;;;;;;;5072981;28;20051;-68
2021/12/31 13:34:12;;;;;;;11.13;5.35;;;;;;;;;;5101836;28;20055;-70
2021/12/31 13:36:51;;;;;;;11.70;5.72;;;;;;;;;;5105686;27;20494;-69
2021/12/31 13:39:18;;;;;;;10.30;5.55;;;;;;;;;;5099245;28;20051;-70
2021/12/31 13:41:44;;;;;;;11.77;6.47;;;;;;;;;;5107811;27;20088;-71
2021/12/31 13:44:12;;;;;;;13.48;6.00;;;;;;;;;;5107436;27;20039;-73
2021/12/31 13:46:44;;;;;;;12.77;6.05;;;;;;;;;;5106478;27;20677;-73
2021/12/31 13:49:18;;;;;;;8.75;5.15;;;;;;;;;;5108293;27;20471;-75
2021/12/31 13:51:45;;;;;;;8.00;4.65;;;;;;;;;;5110403;27;20435;-75
2021/12/31 13:54:13;;;;;;;13.70;5.18;;;;;;;;;;5110512;27;20038;-74
2021/12/31 13:56:39;;;;;;;10.20;4.60;;;;;;;;;;5104370;27;20027;-74
2021/12/31 13:59:18;;;;;;;10.95;4.68;;;;;;;;;;5110339;27;20031;-76
2021/12/31 14:02:03;;;;;;;9.60;4.10;;;;;;;;;;5103563;27;20050;-74
2021/12/31 14:04:29;;;;;;;11.18;4.78;;;;;;;;;;5110503;27;20039;-76
2021/12/31 14:07:01;;;;;;;10.07;4.80;;;;;;;;;;5106047;27;20501;-77
2021/12/31 14:09:27;;;;;;;11.02;4.40;;;;;;;;;;5103181;27;20039;-75
2021/12/31 14:11:56;;;;;;;10.75;3.78;;;;;;;;;;5126956;27;20054;-75
2021/12/31 14:14:22;;;;;;;11.30;4.25;;;;;;;;;;5109910;27;20039;-75
2021/12/31 14:16:48;;;;;;;11.32;4.63;;;;;;;;;;5107538;27;20031;-76
2021/12/31 14:19:15;;;;;;;14.70;4.15;;;;;;;;;;5123815;27;21127;-76
2021/12/31 14:21:41;;;;;;;10.65;4.82;;;;;;;;;;5108920;28;20391;-75
2021/12/31 14:24:07;;;;;;;15.40;5.47;;;;;;;;;;5127581;27;20367;-74
2021/12/31 14:26:36;;;;;;;17.15;5.45;;;;;;;;;;5107825;27;20126;-75
2021/12/31 14:29:03;;;;;;;15.35;5.43;;;;;;;;;;5106855;27;20047;-75
2021/12/31 14:31:29;;;;;;;11.65;5.53;;;;;;;;;;5109581;27;20685;-75
2021/12/31 14:33:55;;;;;;;15.82;5.38;;;;;;;;;;5127486;27;20475;-75
2021/12/31 14:36:23;;;;;;;16.98;5.70;;;;;;;;;;5101394;27;20039;-75
2021/12/31 14:38:49;;;;;;;10.68;4.97;;;;;;;;;;5109687;27;20083;-75
2021/12/31 14:41:21;;;;;;;13.32;4.85;;;;;;;;;;5109048;27;20043;-75
2021/12/31 14:43:48;;;;;;;12.05;4.57;;;;;;;;;;5110806;27;20126;-75
2021/12/31 14:46:15;;;;;;;14.35;5.28;;;;;;;;;;5129165;27;20525;-74